Kelowna, Canada
Current Conditions -  °F | °C
As of 11:00 AM on Friday 24 Oct 2014 (Local Time) from CYLW Reporting Station
Clear Clear  
Wind Chill:   Ceiling: Unl
Heat Index:   Visibility: 9mi
Dew Point:   Wind: 3mph
Humidity: 71%   Direction: 150°SSE
Pressure: 30.11"   Gusts: NA
Location:  49.89°N, 119.5°W
Report Text: CYLW 241800Z AUTO 15003KT 140V210 9SM CLR 08/03 A3011 RMK SLP206
Loading
Personal Weather Stations






























Interactive Weather Map
Tropical Storm Tracking
New forecast layout! Learn more

10-Day Weather Forecast

Advertisements
Track Severe Weather on mobile